createdAt,value
2023-04-22T00:02:14.498Z,99625.31
2023-04-22T00:04:41.743Z,99623.19
2023-04-22T00:07:08.866Z,99618.25
2023-04-22T00:09:35.785Z,99625.03
2023-04-22T00:12:02.599Z,99623.53
2023-04-22T00:14:29.298Z,99616.19
2023-04-22T00:16:56.037Z,99625.28
2023-04-22T00:19:24.367Z,99623.41
2023-04-22T00:21:51.129Z,99607.72
2023-04-22T00:24:17.867Z,99618.44
2023-04-22T00:26:44.495Z,99611.69
2023-04-22T00:29:11.155Z,99593.69
2023-04-22T00:31:37.903Z,99583.84
2023-04-22T00:34:04.715Z,99578.00
2023-04-22T00:36:32.824Z,99583.06
2023-04-22T00:38:59.608Z,99577.81
2023-04-22T00:41:27.718Z,99576.34
2023-04-22T00:43:55.137Z,99574.44
2023-04-22T00:46:21.887Z,99569.03
2023-04-22T00:48:49.256Z,99551.84
2023-04-22T00:51:15.903Z,99542.81
2023-04-22T00:53:43.984Z,99548.88
2023-04-22T00:56:11.408Z,99546.41
2023-04-22T00:58:38.070Z,99536.53
2023-04-22T01:01:04.994Z,99532.75
2023-04-22T01:03:33.081Z,99537.81
2023-04-22T01:05:59.978Z,99524.19
2023-04-22T01:08:29.001Z,99516.84
2023-04-22T01:10:57.532Z,99511.59
2023-04-22T01:13:24.352Z,99509.50
2023-04-22T01:15:51.525Z,99507.00
2023-04-22T01:18:18.868Z,99503.84
2023-04-22T01:20:45.720Z,99504.91
2023-04-22T01:23:18.976Z,99491.91
2023-04-22T01:25:46.285Z,99487.94
2023-04-22T01:28:13.247Z,99492.75
2023-04-22T01:30:40.319Z,99496.09
2023-04-22T01:33:07.137Z,99495.28
2023-04-22T01:35:33.883Z,99483.97
2023-04-22T01:38:00.812Z,99489.00
2023-04-22T01:40:31.253Z,99483.94
2023-04-22T01:42:58.872Z,99489.16
2023-04-22T01:45:25.906Z,99488.97
2023-04-22T01:47:53.008Z,99476.81
2023-04-22T01:50:19.991Z,99484.19
2023-04-22T01:52:46.695Z,99473.50
2023-04-22T01:55:13.375Z,99468.06
2023-04-22T01:57:41.453Z,99460.91
2023-04-22T02:00:09.614Z,99460.09
2023-04-22T02:02:36.381Z,99459.88
2023-04-22T02:05:03.357Z,99447.69
2023-04-22T02:07:30.029Z,99442.50
2023-04-22T02:09:56.663Z,99444.38
2023-04-22T02:12:23.362Z,99447.31
2023-04-22T02:14:51.463Z,99446.00
2023-04-22T02:17:18.174Z,99452.97
2023-04-22T02:19:44.855Z,99444.16
2023-04-22T02:22:11.554Z,99446.41
2023-04-22T02:24:38.248Z,99444.97
2023-04-22T02:27:04.955Z,99446.69
2023-04-22T02:29:31.690Z,99445.84
2023-04-22T02:32:00.186Z,99450.06
2023-04-22T02:34:27.082Z,99446.47
2023-04-22T02:36:53.777Z,99451.31
2023-04-22T02:39:20.607Z,99440.41
2023-04-22T02:41:47.439Z,99436.66
2023-04-22T02:44:14.136Z,99433.72
2023-04-22T02:46:40.820Z,99439.59
2023-04-22T02:49:08.989Z,99441.03
2023-04-22T02:51:38.159Z,99442.09
2023-04-22T02:54:04.971Z,99439.38
2023-04-22T02:56:31.663Z,99427.66
2023-04-22T02:58:58.321Z,99414.25
2023-04-22T03:01:25.099Z,99407.75
2023-04-22T03:03:52.126Z,99404.22
2023-04-22T03:06:20.400Z,99403.13
2023-04-22T03:08:47.203Z,99393.53
2023-04-22T03:11:13.999Z,99394.34
2023-04-22T03:13:40.692Z,99394.75
2023-04-22T03:16:07.506Z,99385.28
2023-04-22T03:18:34.276Z,99382.59
2023-04-22T03:21:00.986Z,99378.81
2023-04-22T03:23:29.019Z,99380.44
2023-04-22T03:25:55.871Z,99365.13
2023-04-22T03:28:22.526Z,99362.63
2023-04-22T03:30:49.307Z,99361.78
2023-04-22T03:33:16.153Z,99366.16
2023-04-22T03:35:42.914Z,99356.31
2023-04-22T03:38:09.606Z,99352.53
2023-04-22T03:40:37.676Z,99360.91
2023-04-22T03:43:04.429Z,99348.97
2023-04-22T03:45:31.184Z,99348.34
2023-04-22T03:47:57.891Z,99332.41
2023-04-22T03:50:25.173Z,99332.84
2023-04-22T03:52:51.869Z,99330.13
2023-04-22T03:55:18.559Z,99337.69
2023-04-22T03:57:46.649Z,99322.38
2023-04-22T04:00:13.900Z,99318.16
2023-04-22T04:02:41.946Z,99310.41
2023-04-22T04:05:09.431Z,99307.81
2023-04-22T04:07:36.175Z,99315.38
2023-04-22T04:10:02.994Z,99317.06
2023-04-22T04:12:29.679Z,99307.47
2023-04-22T04:14:57.826Z,99312.31
2023-04-22T04:17:24.526Z,99316.81
2023-04-22T04:19:51.695Z,99309.88
2023-04-22T04:22:18.376Z,99303.84
2023-04-22T04:24:45.115Z,99301.31
2023-04-22T04:27:11.839Z,99301.31
2023-04-22T04:29:38.855Z,99298.63
2023-04-22T04:32:07.268Z,99299.22
2023-04-22T04:34:33.974Z,99293.16
2023-04-22T04:37:00.664Z,99297.28
2023-04-22T04:39:27.561Z,99290.50
2023-04-22T04:41:54.311Z,99293.09
2023-04-22T04:44:21.000Z,99287.16
2023-04-22T04:46:47.800Z,99282.78
2023-04-22T04:49:16.089Z,99278.38
2023-04-22T04:51:42.894Z,99276.00
2023-04-22T04:54:09.659Z,99284.41
2023-04-22T04:56:36.376Z,99279.31
2023-04-22T04:59:03.077Z,99284.31
2023-04-22T05:01:29.819Z,99284.56
2023-04-22T05:03:56.688Z,99279.72
2023-04-22T05:06:24.898Z,99280.09
2023-04-22T05:08:51.529Z,99266.97
2023-04-22T05:11:18.198Z,99267.63
2023-04-22T05:13:44.907Z,99265.91
2023-04-22T05:16:11.705Z,99267.84
2023-04-22T05:18:38.376Z,99262.63
2023-04-22T05:21:05.494Z,99268.88
2023-04-22T05:23:33.662Z,99265.34
2023-04-22T05:26:00.553Z,99256.34
2023-04-22T05:28:27.232Z,99257.13
2023-04-22T05:30:53.924Z,99249.00
2023-04-22T05:33:20.622Z,99251.50
2023-04-22T05:35:47.440Z,99252.38
2023-04-22T05:38:14.198Z,99245.13
2023-04-22T05:40:42.220Z,99250.88
2023-04-22T05:43:09.223Z,99257.59
2023-04-22T05:45:36.003Z,99257.69
2023-04-22T05:48:02.878Z,99259.69
2023-04-22T05:50:29.688Z,99263.50
2023-04-22T05:52:56.382Z,99261.22
2023-04-22T05:55:23.096Z,99270.06
2023-04-22T05:57:51.167Z,99273.91
2023-04-22T06:00:18.494Z,99281.31
2023-04-22T06:02:45.313Z,99281.75
2023-04-22T06:05:12.238Z,99277.38
2023-04-22T06:07:39.933Z,99284.34
2023-04-22T06:10:08.279Z,99288.47
2023-04-22T06:12:35.731Z,99286.19
2023-04-22T06:15:04.436Z,99276.63
2023-04-22T06:17:31.143Z,99267.69
2023-04-22T06:19:57.852Z,99271.38
2023-04-22T06:22:24.624Z,99272.84
2023-04-22T06:24:51.262Z,99271.50
2023-04-22T06:27:18.008Z,99266.16
2023-04-22T06:29:44.643Z,99266.28
2023-04-22T06:32:12.887Z,99264.94
2023-04-22T06:34:39.553Z,99269.78
2023-04-22T06:37:06.513Z,99270.91
2023-04-22T06:39:33.210Z,99264.59
2023-04-22T06:41:59.975Z,99262.34
2023-04-22T06:44:26.719Z,99253.91
2023-04-22T06:46:54.765Z,99257.59
2023-04-22T06:49:24.675Z,99249.44
2023-04-22T06:51:51.349Z,99259.38
2023-04-22T06:54:18.030Z,99266.53
2023-04-22T06:56:44.760Z,99266.06
2023-04-22T06:59:11.494Z,99265.19
2023-04-22T07:01:38.192Z,99255.94
2023-04-22T07:04:05.030Z,99245.13
2023-04-22T07:06:33.161Z,99249.16
2023-04-22T07:09:00.046Z,99249.91
2023-04-22T07:11:26.768Z,99255.91
2023-04-22T07:13:53.511Z,99263.59
2023-04-22T07:16:20.193Z,99264.59
2023-04-22T07:18:46.929Z,99264.13
2023-04-22T07:21:13.631Z,99253.50
2023-04-22T07:23:41.686Z,99255.06
2023-04-22T07:26:08.392Z,99254.53
2023-04-22T07:28:35.061Z,99253.69
2023-04-22T07:31:02.359Z,99254.50
2023-04-22T07:33:29.100Z,99249.72
2023-04-22T07:35:55.827Z,99248.25
2023-04-22T07:38:23.859Z,99249.53
2023-04-22T07:40:51.929Z,99242.16
2023-04-22T07:43:18.668Z,99245.75
2023-04-22T07:45:45.858Z,99242.31
2023-04-22T07:48:12.604Z,99239.09
2023-04-22T07:50:39.500Z,99242.09
2023-04-22T07:53:06.309Z,99232.53
2023-04-22T07:55:33.106Z,99237.31
2023-04-22T07:58:01.268Z,99239.16
2023-04-22T08:00:28.298Z,99238.25
2023-04-22T08:02:55.108Z,99234.91
2023-04-22T08:05:22.037Z,99239.06
2023-04-22T08:07:48.858Z,99235.13
2023-04-22T08:10:15.592Z,99249.03
2023-04-22T08:12:42.276Z,99245.50
2023-04-22T08:15:10.863Z,99243.44
2023-04-22T08:17:37.720Z,99242.53
2023-04-22T08:20:07.979Z,99236.66
2023-04-22T08:22:35.022Z,99240.56
2023-04-22T08:25:01.738Z,99234.09
2023-04-22T08:27:28.447Z,99233.69
2023-04-22T08:29:55.136Z,99232.13
2023-04-22T08:32:23.289Z,99229.25
2023-04-22T08:34:51.840Z,99223.63
2023-04-22T08:37:18.853Z,99220.59
2023-04-22T08:39:45.532Z,99224.03
2023-04-22T08:42:12.878Z,99219.19
2023-04-22T08:44:40.035Z,99211.09
2023-04-22T08:47:07.486Z,99218.97
2023-04-22T08:49:37.304Z,99210.19
2023-04-22T08:52:04.233Z,99209.78
2023-04-22T08:54:30.879Z,99212.06
2023-04-22T08:56:58.299Z,99211.97
2023-04-22T08:59:25.232Z,99211.75
2023-04-22T09:01:53.436Z,99211.00
2023-04-22T09:04:20.386Z,99218.78
2023-04-22T09:06:48.547Z,99216.25
2023-04-22T09:09:15.313Z,99217.22
2023-04-22T09:11:42.047Z,99207.69
2023-04-22T09:14:08.782Z,99207.59
2023-04-22T09:16:40.847Z,99191.66
2023-04-22T09:19:11.828Z,99193.38
2023-04-22T09:21:39.453Z,99187.34
2023-04-22T09:24:09.349Z,99185.03
2023-04-22T09:26:39.563Z,99181.09
2023-04-22T09:29:06.295Z,99191.88
2023-04-22T09:31:33.092Z,99188.03
2023-04-22T09:34:00.670Z,99183.94
2023-04-22T09:36:27.856Z,99190.19
2023-04-22T09:38:55.376Z,99183.00
2023-04-22T09:41:30.027Z,99189.16
2023-04-22T09:43:57.246Z,99191.81
2023-04-22T09:46:26.001Z,99190.75
2023-04-22T09:48:54.693Z,99192.84
2023-04-22T09:51:22.608Z,99187.97
2023-04-22T09:53:58.378Z,99183.63
2023-04-22T09:59:24.764Z,99180.44
2023-04-22T10:01:53.789Z,99173.91
2023-04-22T10:04:21.100Z,99175.78
2023-04-22T10:06:49.061Z,99180.75
2023-04-22T10:09:18.636Z,99182.66
2023-04-22T10:11:45.716Z,99185.34
2023-04-22T10:14:13.176Z,99175.72
2023-04-22T10:16:45.169Z,99170.16
2023-04-22T10:19:17.277Z,99163.09
2023-04-22T10:21:46.541Z,99171.44
2023-04-22T10:24:16.501Z,99173.28
2023-04-22T10:26:48.762Z,99180.97
2023-04-22T10:29:17.292Z,99172.13
2023-04-22T10:31:51.428Z,99171.56
2023-04-22T10:34:19.049Z,99175.94
2023-04-22T10:37:06.647Z,99173.50
2023-04-22T10:39:34.252Z,99175.19
2023-04-22T10:42:09.639Z,99173.66
2023-04-22T10:44:47.419Z,99178.06
2023-04-22T10:47:25.831Z,99185.00
2023-04-22T10:50:08.940Z,99179.19
2023-04-22T10:52:36.050Z,99172.81
2023-04-22T10:55:04.123Z,99165.97
2023-04-22T10:57:38.082Z,99175.63
2023-04-22T11:00:53.335Z,99172.00
2023-04-22T11:03:29.066Z,99181.41
2023-04-22T11:06:16.559Z,99170.34
2023-04-22T11:08:47.693Z,99174.69
2023-04-22T11:11:17.086Z,99172.06
2023-04-22T11:13:44.498Z,99176.34
2023-04-22T11:16:11.716Z,99174.06
2023-04-22T11:18:40.639Z,99174.19
2023-04-22T11:21:07.687Z,99180.25
2023-04-22T11:23:35.210Z,99165.16
2023-04-22T11:26:03.982Z,99168.81
2023-04-22T11:28:31.400Z,99173.81
2023-04-22T11:31:02.350Z,99173.44
2023-04-22T11:33:29.904Z,99173.97
2023-04-22T11:36:00.773Z,99178.09
2023-04-22T11:38:27.703Z,99175.56
2023-04-22T11:40:55.886Z,99175.44
2023-04-22T11:43:23.025Z,99176.94
2023-04-22T11:45:52.152Z,99169.28
2023-04-22T11:48:19.464Z,99164.72
2023-04-22T11:50:46.354Z,99162.81
2023-04-22T11:53:16.687Z,99163.81
2023-04-22T11:55:45.439Z,99163.16
2023-04-22T11:58:13.849Z,99158.81
2023-04-22T12:00:42.376Z,99156.53
2023-04-22T12:03:15.853Z,99161.53
2023-04-22T12:05:44.669Z,99160.03
2023-04-22T12:08:15.079Z,99158.69
2023-04-22T12:10:46.594Z,99156.69
2023-04-22T12:13:20.986Z,99143.31
2023-04-22T12:15:48.527Z,99150.00
2023-04-22T12:18:15.453Z,99138.34
2023-04-22T12:20:42.971Z,99138.03
2023-04-22T12:23:16.424Z,99149.81
2023-04-22T12:25:43.768Z,99147.75
2023-04-22T12:28:11.298Z,99152.22
2023-04-22T12:30:38.374Z,99141.84
2023-04-22T12:33:05.234Z,99153.03
2023-04-22T12:35:32.840Z,99153.78
2023-04-22T12:37:59.831Z,99154.63
2023-04-22T12:40:28.638Z,99154.88
2023-04-22T12:42:55.723Z,99159.13
2023-04-22T12:45:22.471Z,99151.69
2023-04-22T12:47:51.436Z,99149.34
2023-04-22T12:50:18.475Z,99149.72
2023-04-22T12:52:45.290Z,99146.63
2023-04-22T12:55:12.455Z,99143.34
2023-04-22T12:57:40.948Z,99147.19
2023-04-22T13:00:09.276Z,99153.28
2023-04-22T13:02:36.489Z,99155.16
2023-04-22T13:05:03.945Z,99148.84
2023-04-22T13:07:30.747Z,99152.84
2023-04-22T13:09:58.305Z,99162.00
2023-04-22T13:12:25.330Z,99154.28
2023-04-22T13:14:53.983Z,99149.34
2023-04-22T13:17:21.391Z,99153.19
2023-04-22T13:19:48.860Z,99160.13
2023-04-22T13:22:15.713Z,99151.94
2023-04-22T13:24:42.923Z,99161.56
2023-04-22T13:27:10.309Z,99152.75
2023-04-22T13:29:38.480Z,99156.66
2023-04-22T13:32:08.236Z,99137.69
2023-04-22T13:34:35.320Z,99141.34
2023-04-22T13:37:02.124Z,99134.47
2023-04-22T13:39:29.215Z,99135.47
2023-04-22T13:41:55.943Z,99140.38
2023-04-22T13:44:23.107Z,99144.47
2023-04-22T13:46:50.351Z,99144.13
2023-04-22T13:49:19.028Z,99141.38
2023-04-22T13:51:45.981Z,99139.97
2023-04-22T13:54:13.118Z,99139.47
2023-04-22T13:56:40.139Z,99131.84
2023-04-22T13:59:08.066Z,99136.22
2023-04-22T14:01:35.290Z,99141.47
2023-04-22T14:04:02.584Z,99134.81
2023-04-22T14:06:31.466Z,99131.91
2023-04-22T14:08:58.288Z,99116.47
2023-04-22T14:11:25.424Z,99126.72
2023-04-22T14:13:52.128Z,99128.38
2023-04-22T14:16:19.041Z,99122.25
2023-04-22T14:18:45.922Z,99124.00
2023-04-22T14:21:14.509Z,99119.41
2023-04-22T14:23:43.432Z,99113.53
2023-04-22T14:26:12.639Z,99109.16
2023-04-22T14:28:41.014Z,99121.13
2023-04-22T14:31:09.040Z,99119.50
2023-04-22T14:33:36.442Z,99124.78
2023-04-22T14:36:03.569Z,99110.38
2023-04-22T14:38:30.552Z,99109.09
2023-04-22T14:40:58.996Z,99110.84
2023-04-22T14:43:26.044Z,99119.09
2023-04-22T14:45:53.086Z,99109.28
2023-04-22T14:48:19.907Z,99115.00
2023-04-22T14:50:46.865Z,99118.31
2023-04-22T14:53:13.888Z,99122.66
2023-04-22T14:55:41.041Z,99115.97
2023-04-22T14:58:09.627Z,99123.19
2023-04-22T15:00:36.701Z,99117.69
2023-04-22T15:03:03.928Z,99117.09
2023-04-22T15:05:31.158Z,99112.44
2023-04-22T15:07:58.124Z,99123.50
2023-04-22T15:10:26.112Z,99120.72
2023-04-22T15:12:53.247Z,99116.34
2023-04-22T15:15:22.300Z,99121.88
2023-04-22T15:17:49.499Z,99121.56
2023-04-22T15:20:16.861Z,99119.69
2023-04-22T15:22:44.815Z,99120.22
2023-04-22T15:25:12.325Z,99125.16
2023-04-22T15:27:39.573Z,99119.91
2023-04-22T15:30:08.002Z,99108.06
2023-04-22T15:32:36.666Z,99121.06
2023-04-22T15:35:04.020Z,99105.41
2023-04-22T15:37:32.519Z,99111.81
2023-04-22T15:39:59.679Z,99114.78
2023-04-22T15:42:26.690Z,99099.56
2023-04-22T15:44:53.670Z,99105.56
2023-04-22T15:47:20.559Z,99109.56
2023-04-22T15:49:49.288Z,99100.97
2023-04-22T15:52:16.301Z,99102.28
2023-04-22T15:54:43.148Z,99098.97
2023-04-22T15:57:10.380Z,99100.00
2023-04-22T15:59:37.441Z,99097.53
2023-04-22T16:02:04.466Z,99102.63
2023-04-22T16:04:31.482Z,99103.13
2023-04-22T16:06:59.941Z,99100.66
2023-04-22T16:09:27.011Z,99093.91
2023-04-22T16:11:53.999Z,99086.03
2023-04-22T16:14:20.726Z,99088.34
2023-04-22T16:16:48.847Z,99089.66
2023-04-22T16:19:15.915Z,99090.34
2023-04-22T16:21:42.907Z,99085.81
2023-04-22T16:24:11.543Z,99082.38
2023-04-22T16:26:38.497Z,99085.66
2023-04-22T16:29:05.713Z,99087.06
2023-04-22T16:31:32.589Z,99088.84
2023-04-22T16:34:00.280Z,99086.44
2023-04-22T16:36:27.599Z,99089.63
2023-04-22T16:38:54.591Z,99089.47
2023-04-22T16:41:25.946Z,99080.94
2023-04-22T16:43:52.755Z,99074.09
2023-04-22T16:46:20.629Z,99086.53
2023-04-22T16:48:47.433Z,99076.53
2023-04-22T16:51:14.187Z,99083.88
2023-04-22T16:53:40.981Z,99074.75
2023-04-22T16:56:07.723Z,99082.56
2023-04-22T16:58:36.483Z,99071.13
2023-04-22T17:01:03.597Z,99071.44
2023-04-22T17:03:32.547Z,99070.28
2023-04-22T17:06:00.194Z,99059.41
2023-04-22T17:08:27.426Z,99060.22
2023-04-22T17:10:54.481Z,99059.38
2023-04-22T17:13:21.447Z,99063.00
2023-04-22T17:15:58.018Z,99051.13
2023-04-22T17:18:24.842Z,99060.31
2023-04-22T17:20:52.163Z,99057.59
2023-04-22T17:23:20.338Z,99055.09
2023-04-22T17:25:47.329Z,99050.97
2023-04-22T17:28:14.160Z,99054.47
2023-04-22T17:30:41.039Z,99054.94
2023-04-22T17:33:09.553Z,99049.41
2023-04-22T17:35:36.419Z,99051.59
2023-04-22T17:38:03.233Z,99052.72
2023-04-22T17:40:30.055Z,99049.19
2023-04-22T17:42:56.719Z,99046.66
2023-04-22T17:45:23.550Z,99048.41
2023-04-22T17:47:51.420Z,99047.13
2023-04-22T17:50:19.981Z,99052.16
2023-04-22T17:52:47.116Z,99039.50
2023-04-22T17:55:14.028Z,99045.38
2023-04-22T17:57:41.065Z,99050.34
2023-04-22T18:00:09.389Z,99047.88
2023-04-22T18:02:36.524Z,99046.53
2023-04-22T18:05:03.401Z,99036.03
2023-04-22T18:07:31.698Z,99046.47
2023-04-22T18:09:58.566Z,99044.56
2023-04-22T18:12:25.777Z,99038.56
2023-04-22T18:14:52.689Z,99036.44
2023-04-22T18:17:19.504Z,99041.50
2023-04-22T18:19:46.240Z,99042.06
2023-04-22T18:22:13.053Z,99030.59
2023-04-22T18:24:41.869Z,99039.09
2023-04-22T18:27:08.851Z,99031.31
2023-04-22T18:29:35.946Z,99027.66
2023-04-22T18:32:02.894Z,99031.66
2023-04-22T18:34:29.660Z,99032.34
2023-04-22T18:36:56.630Z,99026.50
2023-04-22T18:39:23.981Z,99034.50
2023-04-22T18:41:53.129Z,99042.44
2023-04-22T18:44:21.395Z,99041.63
2023-04-22T18:46:48.382Z,99035.81
2023-04-22T18:49:15.697Z,99031.09
2023-04-22T18:51:42.476Z,99039.22
2023-04-22T18:54:09.844Z,99040.13
2023-04-22T18:56:38.165Z,99035.38
2023-04-22T18:59:09.117Z,99029.84
2023-04-22T19:01:36.729Z,99029.06
2023-04-22T19:04:03.622Z,99030.25
2023-04-22T19:06:30.720Z,99030.34
2023-04-22T19:08:57.808Z,99036.41
2023-04-22T19:11:24.951Z,99032.69
2023-04-22T19:13:53.623Z,99029.66
2023-04-22T19:16:24.234Z,99028.63
2023-04-22T19:18:52.517Z,99023.03
2023-04-22T19:21:24.825Z,99034.22
2023-04-22T19:23:51.865Z,99030.38
2023-04-22T19:26:19.669Z,99034.22
2023-04-22T19:28:46.454Z,99025.16
2023-04-22T19:31:13.558Z,99023.88
2023-04-22T19:33:43.023Z,99017.00
2023-04-22T19:36:10.035Z,99020.84
2023-04-22T19:38:37.176Z,99014.28
2023-04-22T19:41:04.170Z,99023.91
2023-04-22T19:43:31.456Z,99028.25
2023-04-22T19:46:01.354Z,99016.50
2023-04-22T19:48:29.511Z,99023.72
2023-04-22T19:50:58.344Z,99029.72
2023-04-22T19:53:25.904Z,99017.34
2023-04-22T19:55:53.213Z,99018.94
2023-04-22T19:58:20.326Z,99022.25
2023-04-22T20:00:47.635Z,99022.13
2023-04-22T20:03:14.875Z,99020.72
2023-04-22T20:05:43.683Z,99025.19
2023-04-22T20:08:14.760Z,99018.78
2023-04-22T20:10:42.221Z,99015.84
2023-04-22T20:13:09.823Z,99015.59
2023-04-22T20:15:37.038Z,99026.00
2023-04-22T20:18:05.667Z,99018.22
2023-04-22T20:20:33.021Z,99020.31
2023-04-22T20:23:01.504Z,99022.25
2023-04-22T20:25:32.013Z,99015.13
2023-04-22T20:28:01.325Z,99017.34
2023-04-22T20:30:28.566Z,99015.88
2023-04-22T20:32:56.084Z,99005.84
2023-04-22T20:35:23.597Z,99010.00
2023-04-22T20:37:52.902Z,99019.31
2023-04-22T20:40:22.568Z,99014.91
2023-04-22T20:42:55.234Z,99016.56
2023-04-22T20:45:22.179Z,99007.75
2023-04-22T20:47:49.007Z,99016.94
2023-04-22T20:50:15.940Z,99011.91
2023-04-22T20:52:42.945Z,99002.84
2023-04-22T20:55:09.973Z,99009.38
2023-04-22T20:57:37.514Z,99008.69
2023-04-22T21:00:08.868Z,98998.91
2023-04-22T21:02:36.994Z,98997.69
2023-04-22T21:05:05.178Z,98996.03
2023-04-22T21:07:34.061Z,98981.16
2023-04-22T21:10:01.211Z,98986.63
2023-04-22T21:12:28.698Z,98989.28
2023-04-22T21:14:56.406Z,98992.19
2023-04-22T21:17:30.118Z,98988.06
2023-04-22T21:19:58.148Z,98993.69
2023-04-22T21:22:25.933Z,98995.53
2023-04-22T21:24:53.765Z,98989.13
2023-04-22T21:27:22.433Z,98989.78
2023-04-22T21:29:50.170Z,98985.63
2023-04-22T21:32:17.544Z,98986.59
2023-04-22T21:34:46.053Z,98983.31
2023-04-22T21:37:13.711Z,98988.28
2023-04-22T21:39:41.048Z,98984.47
2023-04-22T21:42:08.851Z,98986.94
2023-04-22T21:44:37.108Z,98978.00
2023-04-22T21:47:05.206Z,98984.81
2023-04-22T21:49:32.057Z,98983.22
2023-04-22T21:52:01.177Z,98978.50
2023-04-22T21:54:28.000Z,98980.97
2023-04-22T21:56:55.605Z,98982.63
2023-04-22T21:59:22.352Z,98983.72
2023-04-22T22:01:49.208Z,98985.75
2023-04-22T22:04:16.551Z,98981.44
2023-04-22T22:06:44.045Z,98988.09
2023-04-22T22:09:13.347Z,98977.47
2023-04-22T22:11:39.992Z,98977.72
2023-04-22T22:14:06.961Z,98978.03
2023-04-22T22:16:33.813Z,98980.28
2023-04-22T22:19:00.651Z,98974.19
2023-04-22T22:21:27.724Z,98977.91
2023-04-22T22:23:54.607Z,98974.91
2023-04-22T22:26:22.991Z,98972.53
2023-04-22T22:28:51.107Z,98966.22
2023-04-22T22:31:17.927Z,98966.81
2023-04-22T22:33:44.729Z,98957.66
2023-04-22T22:36:11.780Z,98965.78
2023-04-22T22:38:38.757Z,98955.94
2023-04-22T22:41:06.622Z,98951.22
2023-04-22T22:43:35.339Z,98953.25
2023-04-22T22:46:02.324Z,98950.63
2023-04-22T22:48:29.234Z,98958.84
2023-04-22T22:50:56.032Z,98951.22
2023-04-22T22:53:23.307Z,98955.75
2023-04-22T22:55:50.677Z,98940.91
2023-04-22T22:58:17.510Z,98941.66
2023-04-22T23:00:46.020Z,98940.56
2023-04-22T23:03:13.942Z,98939.44
2023-04-22T23:05:41.869Z,98934.25
2023-04-22T23:08:08.844Z,98941.19
2023-04-22T23:10:35.583Z,98935.63
2023-04-22T23:13:02.433Z,98929.91
2023-04-22T23:15:29.639Z,98931.75
2023-04-22T23:17:58.046Z,98931.66
2023-04-22T23:20:26.919Z,98931.09
2023-04-22T23:22:56.998Z,98928.84
2023-04-22T23:25:26.286Z,98923.03
2023-04-22T23:27:53.529Z,98923.78
2023-04-22T23:30:21.687Z,98919.81
2023-04-22T23:32:51.305Z,98915.00
2023-04-22T23:35:20.442Z,98919.75
2023-04-22T23:37:51.233Z,98912.84
2023-04-22T23:40:19.688Z,98915.69
2023-04-22T23:42:46.549Z,98909.63
2023-04-22T23:45:13.208Z,98909.53
2023-04-22T23:47:40.269Z,98911.19
2023-04-22T23:50:08.558Z,98906.47
2023-04-22T23:52:36.988Z,98900.00
2023-04-22T23:55:04.709Z,98904.81
2023-04-22T23:57:32.562Z,98899.00
